Time;durP1;ratioP1;P1;durP2;ratioP2;P2;SDS_P1;SDS_P2;PMS_P1;PMS_P2;Temp;Humidity;BMP_temperature;BMP_pressure;BME280_temperature;BME280_humidity;BME280_pressure;Samples;Min_cycle;Max_cycle;Signal;HPM_P1;HPM_P2
2021/12/20 00:02:04;;;;;;;15.63;9.53;;;;;;;4.04;94.43;148679.27;1752977;78;21398;-59
2021/12/20 00:04:31;;;;;;;18.10;9.25;;;;;;;4.05;94.40;148680.53;1759196;78;21059;-59
2021/12/20 00:06:59;;;;;;;17.02;9.10;;;;;;;4.07;94.22;148685.69;1742706;78;21175;-61
2021/12/20 00:09:27;;;;;;;15.48;9.20;;;;;;;4.07;94.05;148685.69;1748478;78;21128;-58
2021/12/20 00:11:54;;;;;;;15.30;8.23;;;;;;;4.06;93.85;148683.11;1730043;78;21168;-59
2021/12/20 00:14:23;;;;;;;12.95;7.85;;;;;;;4.06;93.67;148683.11;1744938;78;21127;-57
2021/12/20 00:16:49;;;;;;;15.25;7.97;;;;;;;4.07;93.43;148687.00;1739511;79;21131;-58
2021/12/20 00:19:18;;;;;;;12.53;7.22;;;;;;;4.09;93.12;148690.84;1763457;78;21024;-58
2021/12/20 00:21:44;;;;;;;13.00;7.25;;;;;;;4.10;92.85;148693.48;1739555;78;21028;-62
2021/12/20 00:24:11;;;;;;;14.55;7.85;;;;;;;4.12;92.62;148699.91;1730616;77;21815;-59
2021/12/20 00:26:37;;;;;;;9.65;6.28;;;;;;;4.15;92.26;148706.38;1741976;78;21087;-60
2021/12/20 00:29:04;;;;;;;12.15;7.05;;;;;;;4.17;92.01;148711.53;1760395;78;21179;-60
2021/12/20 00:31:31;;;;;;;13.35;7.03;;;;;;;4.17;91.75;148711.53;1761810;78;21102;-60
2021/12/20 00:33:57;;;;;;;12.90;7.62;;;;;;;4.17;91.56;148711.53;1743415;78;21078;-60
2021/12/20 00:36:26;;;;;;;12.53;7.17;;;;;;;4.15;91.41;148706.38;1728693;80;21140;-59
2021/12/20 00:41:38;;;;;;;12.43;6.83;;;;;;;4.12;91.13;148698.64;1714945;79;21246;-59
2021/12/20 00:44:05;;;;;;;11.28;7.60;;;;;;;4.09;91.16;148690.84;1722321;80;21127;-59
2021/12/20 00:46:32;;;;;;;11.70;6.47;;;;;;;4.08;91.15;148688.27;1739680;79;21130;-59
2021/12/20 00:48:59;;;;;;;12.95;7.58;;;;;;;4.04;91.10;148679.27;1726061;80;21109;-58
2021/12/20 00:51:26;;;;;;;11.33;6.67;;;;;;;4.00;90.97;148668.94;1746400;79;21087;-60
2021/12/20 00:53:53;;;;;;;10.58;6.40;;;;;;;3.96;90.88;148659.89;1728462;79;21656;-60
2021/12/20 00:56:19;;;;;;;9.48;5.97;;;;;;;3.93;90.74;148652.16;1742687;79;21393;-60
2021/12/20 00:58:46;;;;;;;9.05;5.40;;;;;;;3.89;90.57;148641.83;1700583;80;21079;-60
2021/12/20 01:01:13;;;;;;;9.75;5.62;;;;;;;3.88;90.46;148639.25;1757961;78;21134;-60
2021/12/20 01:03:40;;;;;;;8.65;5.03;;;;;;;3.85;90.27;148631.45;1753345;78;21068;-61
2021/12/20 01:06:07;;;;;;;9.60;5.50;;;;;;;3.80;90.05;148618.56;1747413;78;21009;-60
2021/12/20 01:08:36;;;;;;;8.58;5.22;;;;;;;3.78;89.94;148613.41;1763161;79;22235;-60
2021/12/20 01:11:03;;;;;;;7.50;4.87;;;;;;;3.73;89.75;148603.09;1754401;78;21106;-61
2021/12/20 01:13:31;;;;;;;9.98;5.10;;;;;;;3.68;89.49;148588.88;1761149;78;21849;-59
2021/12/20 01:16:00;;;;;;;10.13;5.50;;;;;;;3.63;89.44;148577.25;1748691;78;21048;-61
2021/12/20 01:18:26;;;;;;;11.93;5.50;;;;;;;3.61;89.41;148572.09;1754274;78;21667;-61
2021/12/20 01:20:53;;;;;;;12.25;5.97;;;;;;;3.59;89.41;148566.92;1765455;78;21572;-61
2021/12/20 01:23:20;;;;;;;9.70;5.60;;;;;;;3.57;89.41;148561.77;1741486;79;21178;-61
2021/12/20 01:25:48;;;;;;;8.40;5.15;;;;;;;3.56;89.36;148559.19;1767036;78;21178;-61
2021/12/20 01:28:16;;;;;;;9.20;4.80;;;;;;;3.51;89.38;148546.28;1749324;78;21076;-60
2021/12/20 01:30:42;;;;;;;8.30;5.00;;;;;;;3.51;89.34;148546.28;1754214;78;21165;-61
2021/12/20 01:33:11;;;;;;;8.10;4.67;;;;;;;3.51;89.29;148546.28;1760634;78;21020;-59
2021/12/20 01:35:38;;;;;;;8.48;4.70;;;;;;;3.52;89.21;148548.87;1759371;78;21064;-60
2021/12/20 01:38:05;;;;;;;8.25;4.58;;;;;;;3.54;89.25;148555.34;1755365;78;21122;-58
2021/12/20 01:40:35;;;;;;;7.75;4.60;;;;;;;3.60;89.00;148568.25;1758294;78;21224;-58
2021/12/20 01:43:02;;;;;;;7.67;4.42;;;;;;;3.61;88.85;148572.09;1746602;78;21032;-58
2021/12/20 01:45:29;;;;;;;8.00;4.50;;;;;;;3.65;88.62;148582.45;1755359;78;21735;-58
2021/12/20 01:48:09;;;;;;;9.88;5.10;;;;;;;3.66;88.45;148585.03;1745644;78;21064;-58
2021/12/20 01:50:41;;;;;;;8.18;4.20;;;;;;;3.65;88.22;148582.45;1741184;79;21158;-58
2021/12/20 01:53:03;;;;;;;7.80;4.35;;;;;;;3.64;88.08;148579.81;1738753;78;21089;-59
2021/12/20 01:55:30;;;;;;;8.15;4.55;;;;;;;3.63;87.96;148577.25;1754003;78;21462;-60
2021/12/20 01:57:57;;;;;;;6.12;3.80;;;;;;;3.64;88.01;148579.81;1759261;78;21063;-60
2021/12/20 02:00:26;;;;;;;7.65;4.25;;;;;;;3.65;87.94;148582.45;1728399;78;21108;-61
2021/12/20 02:02:59;;;;;;;7.78;4.20;;;;;;;3.67;87.93;148586.30;1770131;79;21802;-60
2021/12/20 02:05:29;;;;;;;7.65;4.15;;;;;;;3.67;87.89;148587.61;1754963;78;21068;-59
2021/12/20 02:07:59;;;;;;;8.28;4.47;;;;;;;3.68;87.87;148590.19;1754895;78;22230;-58
2021/12/20 02:10:26;;;;;;;5.83;3.87;;;;;;;3.69;87.87;148592.77;1740071;80;21072;-60
2021/12/20 02:12:53;;;;;;;7.45;4.28;;;;;;;3.71;87.84;148596.61;1740177;80;21078;-60
2021/12/20 02:15:19;;;;;;;8.90;4.20;;;;;;;3.73;87.90;148603.09;1674044;83;21141;-59
2021/12/20 02:17:46;;;;;;;7.12;4.20;;;;;;;3.77;87.91;148612.14;1702801;81;21064;-57
2021/12/20 02:20:29;;;;;;;6.67;4.05;;;;;;;3.82;87.94;148623.72;1748137;79;21041;-57
2021/12/20 02:22:57;;;;;;;7.75;4.37;;;;;;;3.84;87.82;148628.88;1748259;78;21105;-58
2021/12/20 02:25:24;;;;;;;6.70;4.30;;;;;;;3.84;87.81;148628.88;1758812;78;21028;-58
2021/12/20 02:27:51;;;;;;;8.93;4.83;;;;;;;3.81;87.74;148622.45;1750158;78;21945;-59
2021/12/20 02:38:26;;;;;;;8.93;4.08;;;;;;;3.68;88.07;148590.19;1755021;78;21118;-59
2021/12/20 02:41:11;;;;;;;7.60;4.83;;;;;;;3.65;88.10;148582.45;1752988;78;21856;-57
2021/12/20 02:43:39;;;;;;;8.60;4.30;;;;;;;3.63;88.25;148575.97;1716747;80;22328;-58
2021/12/20 02:46:11;;;;;;;6.28;3.90;;;;;;;3.59;88.32;148566.92;1751965;78;21106;-59
2021/12/20 02:48:34;;;;;;;7.15;4.30;;;;;;;3.59;88.37;148566.92;1754900;78;21075;-58
2021/12/20 02:51:01;;;;;;;6.00;4.00;;;;;;;3.56;88.33;148559.19;1753329;78;21170;-58
2021/12/20 02:53:27;;;;;;;6.28;3.80;;;;;;;3.56;88.39;148560.50;1752393;78;21111;-59
2021/12/20 02:55:54;;;;;;;8.38;3.72;;;;;;;3.55;88.37;148557.92;1735751;79;21106;-58
2021/12/20 02:58:20;;;;;;;6.72;4.05;;;;;;;3.56;88.40;148560.50;1734361;79;21067;-60
2021/12/20 03:00:47;;;;;;;6.62;3.45;;;;;;;3.58;88.35;148565.66;1753948;78;21860;-60
2021/12/20 03:03:14;;;;;;;6.85;4.03;;;;;;;3.58;88.23;148565.66;1776386;78;21055;-60
2021/12/20 03:05:41;;;;;;;12.90;4.03;;;;;;;3.58;88.13;148564.34;1751345;78;21043;-59
2021/12/20 03:08:08;;;;;;;5.17;3.62;;;;;;;3.57;88.00;148561.77;1741694;78;21469;-60
2021/12/20 03:10:39;;;;;;;8.05;3.65;;;;;;;3.57;87.89;148563.08;1747254;78;21211;-58
2021/12/20 03:13:03;;;;;;;8.38;3.58;;;;;;;3.57;87.87;148563.08;1733601;79;21095;-57
2021/12/20 03:15:30;;;;;;;8.65;3.60;;;;;;;3.57;87.80;148561.77;1717949;81;21385;-57
2021/12/20 03:17:58;;;;;;;5.85;3.70;;;;;;;3.58;87.73;148564.34;1729396;79;21796;-58
2021/12/20 03:20:25;;;;;;;5.42;3.22;;;;;;;3.60;87.70;148569.50;1741579;78;21550;-60
2021/12/20 03:22:51;;;;;;;6.42;3.77;;;;;;;3.60;87.54;148568.25;1729468;79;21099;-60
2021/12/20 03:25:21;;;;;;;9.50;3.80;;;;;;;3.55;87.23;148556.61;1718200;80;21082;-60
2021/12/20 03:27:48;;;;;;;6.92;3.85;;;;;;;3.51;87.17;148546.28;1739624;80;21135;-61
2021/12/20 03:30:14;;;;;;;4.85;3.42;;;;;;;3.43;87.17;148528.23;1736094;80;21588;-60
2021/12/20 03:32:43;;;;;;;7.78;4.08;;;;;;;3.37;87.27;148512.72;1689710;81;21073;-59
2021/12/20 03:35:10;;;;;;;7.42;4.00;;;;;;;3.33;87.43;148501.13;1703264;81;21137;-58
2021/12/20 03:37:37;;;;;;;6.05;3.77;;;;;;;3.28;87.64;148489.50;1716358;80;21483;-58
2021/12/20 03:40:06;;;;;;;12.53;4.00;;;;;;;3.25;87.75;148481.77;1720592;79;21167;-59
2021/12/20 03:42:32;;;;;;;6.42;4.00;;;;;;;3.21;87.86;148471.47;1715467;80;21102;-59
2021/12/20 03:44:59;;;;;;;6.40;3.67;;;;;;;3.15;87.96;148458.52;1735836;79;21181;-60
2021/12/20 03:47:26;;;;;;;5.90;3.55;;;;;;;3.10;88.12;148445.62;1734431;78;21138;-59
2021/12/20 03:49:54;;;;;;;7.25;3.80;;;;;;;3.10;88.31;148444.36;1741703;78;37850;-58
2021/12/20 03:52:20;;;;;;;5.78;3.77;;;;;;;3.09;88.50;148441.73;1766273;79;21130;-57
2021/12/20 03:54:47;;;;;;;5.20;3.60;;;;;;;3.11;88.64;148448.20;1761837;78;21112;-58
2021/12/20 03:57:14;;;;;;;8.75;4.05;;;;;;;3.13;88.68;148453.36;1742905;79;21063;-60
2021/12/20 03:59:42;;;;;;;7.17;3.47;;;;;;;3.15;88.76;148457.25;1740434;78;22308;-57
2021/12/20 04:02:08;;;;;;;5.53;3.72;;;;;;;3.17;88.78;148462.41;1741412;78;21098;-60
2021/12/20 04:04:36;;;;;;;6.17;3.77;;;;;;;3.18;88.70;148464.98;1756225;78;21057;-58
2021/12/20 04:07:04;;;;;;;6.60;3.98;;;;;;;3.19;88.66;148466.25;1740976;79;21159;-60
2021/12/20 04:09:31;;;;;;;6.47;3.58;;;;;;;3.18;88.61;148464.98;1740273;79;21625;-59
2021/12/20 04:11:58;;;;;;;8.13;3.70;;;;;;;3.17;88.66;148461.09;1752815;78;20999;-58
2021/12/20 04:14:25;;;;;;;5.72;3.62;;;;;;;3.18;88.75;148463.67;1760238;78;21597;-58
2021/12/20 04:16:52;;;;;;;8.25;3.90;;;;;;;3.18;88.78;148463.67;1749562;78;21130;-60
2021/12/20 04:19:18;;;;;;;9.80;4.03;;;;;;;3.16;88.76;148459.83;1768454;78;21099;-59
2021/12/20 04:21:45;;;;;;;12.58;4.62;;;;;;;3.12;88.81;148449.52;1738032;79;21395;-58
2021/12/20 04:24:11;;;;;;;8.68;3.83;;;;;;;3.07;88.95;148437.89;1729405;78;21458;-58
2021/12/20 04:26:39;;;;;;;10.32;4.22;;;;;;;3.02;89.06;148425.00;1758997;78;21103;-60
2021/12/20 04:29:07;;;;;;;6.60;3.70;;;;;;;2.99;89.27;148417.27;1762176;78;21020;-58
2021/12/20 04:31:35;;;;;;;5.55;3.65;;;;;;;2.98;89.50;148414.64;1755999;79;21888;-59
2021/12/20 04:34:03;;;;;;;6.58;3.37;;;;;;;2.98;89.67;148415.95;1758622;78;21542;-58
2021/12/20 04:36:32;;;;;;;8.18;3.70;;;;;;;2.98;89.90;148414.64;1747944;78;21048;-58
2021/12/20 04:38:58;;;;;;;6.92;3.92;;;;;;;2.98;90.11;148415.95;1749289;79;21055;-59
2021/12/20 04:41:24;;;;;;;7.83;3.77;;;;;;;2.99;90.31;148417.27;1736892;79;21100;-57
2021/12/20 04:43:51;;;;;;;5.30;3.52;;;;;;;2.98;90.54;148415.95;1741389;79;22527;-60
2021/12/20 04:46:18;;;;;;;5.80;3.55;;;;;;;3.01;90.78;148422.42;1733538;78;21057;-61
2021/12/20 04:48:45;;;;;;;7.12;3.80;;;;;;;3.05;90.98;148432.73;1746742;78;21103;-60
2021/12/20 04:51:13;;;;;;;7.80;4.00;;;;;;;3.11;91.19;148448.20;1746401;78;21648;-59
2021/12/20 04:53:40;;;;;;;5.95;3.67;;;;;;;3.17;91.41;148461.09;1766012;78;21047;-58
2021/12/20 04:56:07;;;;;;;7.35;3.58;;;;;;;3.22;91.58;148475.31;1749326;79;21115;-58
2021/12/20 04:58:34;;;;;;;5.83;3.72;;;;;;;3.27;91.73;148488.19;1754738;78;21037;-61
2021/12/20 05:01:01;;;;;;;6.80;3.15;;;;;;;3.30;91.94;148495.92;1750019;78;21043;-61
2021/12/20 05:03:29;;;;;;;5.58;3.20;;;;;;;3.35;92.23;148506.30;1751874;78;21495;-60
2021/12/20 05:05:57;;;;;;;5.53;3.33;;;;;;;3.38;92.56;148515.30;1747132;78;21063;-58
2021/12/20 05:08:32;;;;;;;5.42;2.92;;;;;;;3.42;92.91;148525.61;1749235;78;21143;-58
2021/12/20 05:10:52;;;;;;;4.40;2.90;;;;;;;3.47;93.51;148535.97;1748835;78;21639;-58
2021/12/20 05:13:19;;;;;;;6.35;3.08;;;;;;;3.40;93.52;148520.45;1746917;78;21143;-58
2021/12/20 05:15:46;;;;;;;3.87;2.87;;;;;;;3.35;94.18;148506.30;1744851;78;22192;-58
2021/12/20 05:18:13;;;;;;;5.37;2.50;;;;;;;3.30;94.57;148494.67;1759300;78;21084;-58
2021/12/20 05:20:39;;;;;;;3.83;2.40;;;;;;;3.29;95.41;148493.34;1743068;78;21172;-60
2021/12/20 05:23:07;;;;;;;3.22;2.37;;;;;;;3.28;95.77;148489.50;1741244;80;21470;-61
2021/12/20 05:25:36;;;;;;;3.42;2.17;;;;;;;3.21;96.13;148471.47;1744635;78;21080;-60
2021/12/20 05:28:03;;;;;;;3.12;2.20;;;;;;;3.14;96.52;148455.94;1731021;79;21005;-60
2021/12/20 05:30:30;;;;;;;3.47;2.55;;;;;;;3.08;97.26;148439.16;1699504;81;21123;-57
2021/12/20 05:32:57;;;;;;;3.15;2.35;;;;;;;2.98;97.29;148414.64;1724024;80;22348;-58
2021/12/20 05:35:24;;;;;;;3.37;2.37;;;;;;;2.93;97.75;148401.75;1740661;79;21191;-60
2021/12/20 05:37:51;;;;;;;3.62;2.35;;;;;;;2.90;98.19;148394.02;1742071;80;21498;-60
2021/12/20 05:40:18;;;;;;;4.75;2.30;;;;;;;2.86;98.40;148386.28;1701692;81;21168;-61
2021/12/20 05:42:46;;;;;;;3.80;2.30;;;;;;;2.85;98.79;148382.39;1731741;80;21055;-61
2021/12/20 05:45:13;;;;;;;3.30;2.10;;;;;;;2.83;99.08;148378.55;1697539;82;21567;-60
2021/12/20 05:47:41;;;;;;;3.10;2.20;;;;;;;2.81;99.25;148373.41;1744875;79;21067;-60
2021/12/20 05:50:09;;;;;;;3.02;2.05;;;;;;;2.76;99.38;148360.45;1725297;80;20993;-60
2021/12/20 05:52:36;;;;;;;3.50;2.37;;;;;;;2.74;99.54;148355.31;1744389;78;21178;-58
2021/12/20 05:55:04;;;;;;;5.17;2.10;;;;;;;2.72;99.71;148350.16;1764702;78;21051;-57
2021/12/20 05:57:32;;;;;;;4.20;2.52;;;;;;;2.69;99.77;148342.42;1739743;78;21373;-57
2021/12/20 06:00:00;;;;;;;4.00;2.15;;;;;;;2.69;99.87;148342.42;1746185;78;21457;-58
2021/12/20 06:02:27;;;;;;;2.75;1.90;;;;;;;2.70;99.91;148346.31;1735452;78;21083;-58
2021/12/20 06:04:53;;;;;;;3.37;1.98;;;;;;;2.74;99.74;148355.31;1754772;79;21177;-58
2021/12/20 06:07:20;;;;;;;2.62;1.75;;;;;;;2.75;99.62;148357.88;1758211;78;21147;-58
2021/12/20 06:09:49;;;;;;;3.40;2.00;;;;;;;2.81;99.44;148372.08;1769922;78;21627;-58
2021/12/20 06:12:16;;;;;;;4.45;1.90;;;;;;;2.81;99.21;148372.08;1734006;78;21075;-58
2021/12/20 06:14:42;;;;;;;3.02;1.57;;;;;;;2.82;99.01;148374.66;1742726;78;21096;-58
2021/12/20 06:17:10;;;;;;;2.70;1.57;;;;;;;2.81;98.50;148373.41;1754663;78;21116;-58
2021/12/20 06:19:37;;;;;;;3.02;1.80;;;;;;;2.78;98.26;148365.66;1758577;78;21115;-60
2021/12/20 06:22:04;;;;;;;5.08;2.12;;;;;;;2.74;97.95;148355.31;1763232;78;21853;-60
2021/12/20 06:24:33;;;;;;;5.95;2.83;;;;;;;2.69;97.61;148342.42;1749970;78;21627;-59
2021/12/20 06:27:00;;;;;;;3.27;1.60;;;;;;;2.65;97.75;148332.11;1744475;78;21694;-58
2021/12/20 06:29:27;;;;;;;2.15;1.30;;;;;;;2.62;97.71;148324.38;1747546;78;21112;-58
2021/12/20 06:31:54;;;;;;;62.62;30.12;;;;;;;2.58;97.67;148316.64;1747329;78;21097;-60
2021/12/20 06:34:22;;;;;;;19.07;9.30;;;;;;;2.54;97.74;148306.34;1753445;78;21116;-60
2021/12/20 06:39:17;;;;;;;34.58;14.85;;;;;;;2.57;98.19;148314.06;1745359;78;21021;-60
2021/12/20 06:41:45;;;;;;;47.08;21.27;;;;;;;2.60;98.42;148320.48;1745569;78;21056;-60
2021/12/20 06:44:12;;;;;;;135.05;54.98;;;;;;;2.60;98.33;148320.48;1716805;80;21501;-63
2021/12/20 06:46:40;;;;;;;142.15;65.87;;;;;;;2.60;98.21;148319.22;1766522;77;21230;-59
2021/12/20 06:49:09;;;;;;;82.35;40.70;;;;;;;2.61;98.57;148321.80;1761346;78;21089;-63
2021/12/20 06:51:41;;;;;;;47.62;21.25;;;;;;;2.64;98.83;148330.80;1749573;78;21135;-61
2021/12/20 06:54:15;;;;;;;30.05;15.38;;;;;;;2.70;98.88;148345.00;1755984;78;21217;-61
2021/12/20 06:56:43;;;;;;;7.83;4.00;;;;;;;2.75;98.54;148356.63;1746472;80;21159;-62
2021/12/20 06:59:09;;;;;;;4.47;2.10;;;;;;;2.77;98.34;148363.09;1767895;77;21133;-61
2021/12/20 07:01:36;;;;;;;2.90;1.75;;;;;;;2.80;98.18;148370.81;1753639;78;21093;-62
2021/12/20 07:04:04;;;;;;;57.48;26.25;;;;;;;2.85;97.98;148383.70;1758019;78;21163;-61
2021/12/20 07:06:36;;;;;;;6.08;2.92;;;;;;;2.90;97.61;148394.02;1734480;79;21100;-61
2021/12/20 07:09:04;;;;;;;4.55;2.37;;;;;;;2.94;97.34;148405.64;1767901;78;21462;-62
2021/12/20 07:11:31;;;;;;;16.32;7.95;;;;;;;2.98;97.05;148414.64;1766351;78;21242;-62
2021/12/20 07:13:57;;;;;;;5.35;2.62;;;;;;;2.98;96.20;148415.95;1761114;78;22106;-62
2021/12/20 07:16:24;;;;;;;3.60;1.67;;;;;;;2.94;96.18;148405.64;1750707;78;21103;-62
2021/12/20 07:18:51;;;;;;;9.45;4.08;;;;;;;2.97;95.95;148412.06;1760016;78;21020;-61
2021/12/20 07:21:19;;;;;;;9.10;4.78;;;;;;;2.96;95.03;148410.80;1752740;79;21019;-61
2021/12/20 07:23:46;;;;;;;6.80;2.55;;;;;;;2.95;95.02;148408.22;1741415;78;21186;-62
2021/12/20 07:26:12;;;;;;;6.75;3.42;;;;;;;2.97;94.41;148413.37;1752104;78;21170;-62
2021/12/20 07:28:44;;;;;;;16.57;8.03;;;;;;;2.96;93.81;148409.48;1752840;77;21044;-62
2021/12/20 07:31:11;;;;;;;20.40;9.30;;;;;;;2.94;93.66;148404.33;1773050;77;21094;-62
2021/12/20 07:33:40;;;;;;;41.95;21.00;;;;;;;2.95;93.64;148408.22;1746945;78;21089;-63
2021/12/20 07:36:07;;;;;;;46.05;20.90;;;;;;;3.01;93.71;148422.42;1737754;78;21899;-62
2021/12/20 07:38:35;;;;;;;75.62;36.50;;;;;;;3.05;92.31;148432.73;1750117;78;21257;-63
2021/12/20 07:41:03;;;;;;;17.15;8.30;;;;;;;3.05;92.35;148432.73;1713459;79;21089;-62
2021/12/20 07:43:31;;;;;;;75.83;37.53;;;;;;;3.06;92.31;148435.31;1747376;78;21131;-61
2021/12/20 07:45:58;;;;;;;182.45;84.17;;;;;;;3.09;92.10;148443.05;1742426;78;21102;-64
2021/12/20 07:48:40;;;;;;;78.22;37.13;;;;;;;3.07;91.35;148437.89;1732733;78;21096;-62
2021/12/20 07:51:08;;;;;;;35.13;17.57;;;;;;;3.04;91.11;148430.16;1763269;78;21147;-61
2021/12/20 07:53:35;;;;;;;22.30;11.10;;;;;;;3.04;90.84;148430.16;1757986;78;21366;-62
2021/12/20 07:56:04;;;;;;;32.35;9.73;;;;;;;3.07;90.72;148436.58;1765411;78;21115;-62
2021/12/20 07:58:33;;;;;;;115.88;46.65;;;;;;;3.03;90.16;148427.58;1758027;78;21111;-59
2021/12/20 08:01:01;;;;;;;43.70;18.05;;;;;;;2.98;90.22;148414.64;1761107;78;21604;-59
2021/12/20 08:03:31;;;;;;;190.43;85.47;;;;;;;2.88;89.46;148390.17;1770185;78;21658;-59
2021/12/20 08:05:58;;;;;;;46.30;22.37;;;;;;;2.80;89.41;148369.50;1765152;79;21165;-58
2021/12/20 08:08:25;;;;;;;101.85;44.77;;;;;;;2.72;89.55;148350.16;1750233;79;21109;-59
2021/12/20 08:10:54;;;;;;;83.65;36.95;;;;;;;2.63;89.50;148328.22;1755364;78;21322;-62
2021/12/20 08:13:21;;;;;;;97.37;42.33;;;;;;;2.53;89.41;148303.70;1735603;80;21848;-59
2021/12/20 08:15:48;;;;;;;75.12;36.10;;;;;;;2.46;89.21;148285.67;1751213;79;21892;-61
2021/12/20 08:18:17;;;;;;;143.80;63.73;;;;;;;2.44;89.64;148280.52;1761987;78;21189;-61
2021/12/20 08:20:44;;;;;;;76.10;32.48;;;;;;;2.45;89.99;148283.09;1747565;78;21123;-61
2021/12/20 08:23:11;;;;;;;35.45;15.50;;;;;;;2.49;90.19;148293.41;1757928;78;21067;-65
2021/12/20 08:25:39;;;;;;;5.90;2.65;;;;;;;2.53;90.03;148303.70;1748143;80;21115;-59
2021/12/20 08:28:07;;;;;;;10.20;4.22;;;;;;;2.54;89.34;148306.34;1744401;80;21440;-60
2021/12/20 08:30:33;;;;;;;66.15;30.12;;;;;;;2.58;88.94;148316.64;1729346;80;21099;-61
2021/12/20 08:33:00;;;;;;;14.55;6.60;;;;;;;2.64;88.91;148329.53;1674563;82;21564;-61
2021/12/20 08:35:27;;;;;;;43.55;19.65;;;;;;;2.69;88.44;148342.42;1756482;78;21548;-58
2021/12/20 08:37:54;;;;;;;27.82;12.80;;;;;;;2.74;88.74;148355.31;1770550;78;21170;-61
2021/12/20 08:40:22;;;;;;;8.60;3.20;;;;;;;2.82;88.03;148375.97;1765511;78;21051;-61
2021/12/20 08:43:08;;;;;;;;;;;;;;;2.88;87.23;148388.86;1757713;78;21118;-63
2021/12/20 08:45:37;;;;;;;148.97;64.30;;;;;;;2.91;86.34;148396.59;1755634;78;20552;-61
2021/12/20 08:48:04;;;;;;;175.87;79.40;;;;;;;2.92;86.41;148399.17;1757544;78;20999;-61
2021/12/20 08:50:33;;;;;;;67.55;32.63;;;;;;;2.95;85.59;148406.91;1754231;78;21789;-58
2021/12/20 08:52:59;;;;;;;21.25;9.78;;;;;;;2.98;85.17;148415.95;1760941;78;21031;-58
2021/12/20 08:55:45;;;;;;;6.87;2.40;;;;;;;3.04;85.01;148430.16;1757838;78;21131;-58
2021/12/20 08:58:13;;;;;;;7.15;1.92;;;;;;;3.17;84.67;148462.41;1753334;78;21431;-58
2021/12/20 09:00:40;;;;;;;4.65;2.25;;;;;;;3.25;84.26;148481.77;1757739;78;21108;-59
2021/12/20 09:03:07;;;;;;;12.53;4.92;;;;;;;3.31;83.62;148497.25;1757632;78;21128;-58
2021/12/20 09:05:35;;;;;;;3.98;2.12;;;;;;;3.36;82.32;148508.87;1757006;78;21068;-58
2021/12/20 09:08:21;;;;;;;32.50;14.40;;;;;;;3.40;82.07;148520.45;1729762;80;21097;-59
2021/12/20 09:10:50;;;;;;;100.30;44.67;;;;;;;3.49;81.20;148541.12;1735386;80;21231;-59
2021/12/20 09:13:18;;;;;;;102.87;50.60;;;;;;;3.54;79.25;148554.03;1738487;80;21104;-58
2021/12/20 09:15:45;;;;;;;49.90;24.02;;;;;;;3.59;79.17;148566.92;1740137;80;21186;-58
2021/12/20 09:18:12;;;;;;;21.82;8.73;;;;;;;3.67;79.26;148587.61;1718672;80;21122;-65
2021/12/20 09:20:40;;;;;;;181.40;88.05;;;;;;;3.71;77.70;148597.92;1684114;82;21111;-61
2021/12/20 09:23:08;;;;;;;53.75;25.27;;;;;;;3.73;76.66;148603.09;1749210;78;22235;-60
2021/12/20 09:25:40;;;;;;;34.58;16.73;;;;;;;3.76;76.74;148608.25;1734472;80;21062;-62
2021/12/20 09:28:10;;;;;;;97.47;46.83;;;;;;;3.79;76.20;148615.98;1740784;79;21116;-58
2021/12/20 09:30:39;;;;;;;75.83;35.88;;;;;;;3.76;74.89;148609.56;1742069;80;21076;-59
2021/12/20 09:33:06;;;;;;;132.32;62.65;;;;;;;3.72;74.70;148599.19;1709715;79;21665;-59
2021/12/20 09:35:34;;;;;;;29.40;14.58;;;;;;;3.67;75.99;148587.61;1729227;80;21109;-58
2021/12/20 09:38:06;;;;;;;87.10;38.13;;;;;;;3.64;76.43;148579.81;1738509;79;21148;-61
2021/12/20 09:40:36;;;;;;;74.03;33.50;;;;;;;3.65;75.91;148581.14;1756660;78;21766;-61
2021/12/20 09:43:07;;;;;;;83.65;39.18;;;;;;;3.69;74.99;148592.77;1759336;78;21107;-61
2021/12/20 09:45:35;;;;;;;20.27;9.73;;;;;;;3.75;74.52;148605.66;1770801;78;21196;-59
2021/12/20 09:48:03;;;;;;;5.90;2.52;;;;;;;3.85;72.78;148631.45;1757129;78;21604;-59
2021/12/20 09:50:30;;;;;;;74.12;36.90;;;;;;;3.93;72.11;148650.83;1755691;78;21173;-62
2021/12/20 09:52:57;;;;;;;38.88;19.55;;;;;;;4.01;68.96;148672.78;1753619;78;21765;-59
2021/12/20 09:55:25;;;;;;;70.87;36.50;;;;;;;4.06;67.32;148683.11;1753132;79;21100;-59
2021/12/20 09:57:52;;;;;;;63.98;26.48;;;;;;;4.07;68.02;148687.00;1746634;80;21127;-59
2021/12/20 10:00:22;;;;;;;81.40;27.02;;;;;;;4.09;64.91;148690.84;1760502;78;21057;-60
2021/12/20 10:02:50;;;;;;;88.47;35.55;;;;;;;4.06;66.44;148684.42;1768179;78;21083;-62
2021/12/20 10:05:19;;;;;;;17.07;8.68;;;;;;;4.05;67.56;148681.84;1767788;78;21131;-62
2021/12/20 10:07:51;;;;;;;31.82;13.72;;;;;;;4.07;66.00;148685.69;1769807;78;22078;-59
2021/12/20 10:10:42;;;;;;;4.67;1.95;;;;;;;4.06;66.13;148684.42;1759964;78;21040;-59
2021/12/20 10:13:25;;;;;;;41.77;14.78;;;;;;;4.12;65.21;148698.64;1768563;78;21098;-60
2021/12/20 10:15:53;;;;;;;51.92;21.25;;;;;;;4.14;62.25;148703.80;1753414;79;21047;-61
2021/12/20 10:18:21;;;;;;;16.27;6.83;;;;;;;4.13;63.04;148701.22;1759620;78;21132;-62
2021/12/20 10:21:05;;;;;;;5.35;2.12;;;;;;;4.16;63.23;148708.97;1761674;78;21158;-60
2021/12/20 10:23:46;;;;;;;238.92;104.00;;;;;;;4.24;64.09;148729.61;1720916;79;21088;-62
2021/12/20 10:26:19;;;;;;;123.78;51.77;;;;;;;4.30;60.92;148745.09;1749480;79;21408;-61
2021/12/20 10:28:53;;;;;;;48.83;22.93;;;;;;;4.33;61.71;148750.30;1730221;80;21110;-59
2021/12/20 10:31:24;;;;;;;8.70;4.03;;;;;;;4.37;60.62;148760.62;1748175;80;21131;-59
2021/12/20 10:34:01;;;;;;;14.98;6.92;;;;;;;4.37;56.77;148761.89;1746609;80;21674;-60
2021/12/20 10:36:28;;;;;;;76.57;34.65;;;;;;;4.38;54.72;148763.20;1738178;79;21525;-64
2021/12/20 10:38:57;;;;;;;145.90;68.50;;;;;;;4.33;53.20;148750.30;1735114;80;21087;-62
2021/12/20 10:41:33;;;;;;;14.28;5.85;;;;;;;4.26;54.41;148734.77;1726587;80;21111;-63
2021/12/20 10:44:00;;;;;;;5.10;1.60;;;;;;;4.21;55.02;148721.86;1734097;80;21265;-59
2021/12/20 10:46:32;;;;;;;10.23;2.00;;;;;;;4.18;55.52;148714.13;1747672;80;22131;-59
2021/12/20 10:49:05;;;;;;;10.50;5.35;;;;;;;4.18;56.63;148714.13;1749013;78;20969;-61
2021/12/20 10:51:40;;;;;;;7.12;2.70;;;;;;;4.16;58.44;148710.22;1752542;78;23381;-62
2021/12/20 10:54:11;;;;;;;6.08;1.77;;;;;;;4.15;60.15;148707.66;1750887;78;21126;-62
2021/12/20 10:57:05;;;;;;;3.62;0.98;;;;;;;4.18;60.26;148712.81;1757261;78;21088;-59
2021/12/20 10:59:35;;;;;;;2.33;1.32;;;;;;;4.19;60.27;148715.39;1725415;80;21765;-62
2021/12/20 11:04:56;;;;;;;12.68;4.15;;;;;;;4.30;60.35;148745.09;1752194;78;21070;-59
2021/12/20 11:09:54;;;;;;;3.90;1.40;;;;;;;4.39;59.96;148767.05;1762637;78;21121;-60
2021/12/20 11:12:29;;;;;;;5.25;1.42;;;;;;;4.47;59.63;148785.17;1766971;78;21106;-59
2021/12/20 11:14:59;;;;;;;7.00;2.50;;;;;;;4.53;60.18;148801.97;1767241;78;21111;-60
2021/12/20 11:17:28;;;;;;;5.35;3.02;;;;;;;4.58;57.30;148814.88;1761117;78;21132;-59
2021/12/20 11:19:56;;;;;;;6.35;1.55;;;;;;;4.62;56.56;148822.63;1772411;78;21159;-59
2021/12/20 11:22:30;;;;;;;2.83;1.05;;;;;;;4.64;56.79;148827.78;1748706;80;22517;-61
2021/12/20 11:25:07;;;;;;;8.58;4.25;;;;;;;4.67;57.01;148835.53;1721461;80;21107;-59
2021/12/20 11:27:46;;;;;;;89.85;38.38;;;;;;;4.63;57.28;148825.19;1703179;81;22178;-60
2021/12/20 11:30:16;;;;;;;96.85;37.63;;;;;;;4.51;57.33;148796.75;1746965;80;21066;-60
2021/12/20 11:32:45;;;;;;;8.20;2.77;;;;;;;4.35;56.55;148755.47;1750399;80;21021;-60
2021/12/20 11:35:13;;;;;;;4.92;1.10;;;;;;;4.21;55.52;148721.86;1740696;80;21183;-60
2021/12/20 11:37:41;;;;;;;3.52;1.00;;;;;;;4.14;56.39;148703.80;1738813;80;21082;-59
2021/12/20 11:40:11;;;;;;;3.37;1.62;;;;;;;4.10;57.48;148694.75;1757601;78;21076;-60
2021/12/20 11:42:38;;;;;;;8.85;3.37;;;;;;;4.12;57.80;148698.64;1770036;78;20986;-60
2021/12/20 11:45:07;;;;;;;6.03;2.40;;;;;;;4.11;58.31;148697.33;1765559;78;20965;-59
2021/12/20 11:50:15;;;;;;;7.17;2.40;;;;;;;4.13;58.40;148701.22;1747313;80;21819;-59
2021/12/20 11:52:45;;;;;;;2.55;1.02;;;;;;;4.10;59.16;148693.48;1716393;80;21070;-60
2021/12/20 11:55:28;;;;;;;6.42;2.00;;;;;;;4.10;59.75;148694.75;1731381;80;21057;-60
2021/12/20 11:58:02;;;;;;;4.90;2.17;;;;;;;4.07;60.99;148687.00;1746813;80;21117;-60